createdAt,value
2023-03-31T00:00:32.943Z,2.31
2023-03-31T00:01:32.973Z,2.40
2023-03-31T00:02:33.055Z,2.36
2023-03-31T00:03:33.133Z,2.18
2023-03-31T00:04:33.071Z,2.28
2023-03-31T00:05:34.025Z,2.48
2023-03-31T00:06:33.380Z,2.73
2023-03-31T00:07:33.149Z,2.76
2023-03-31T00:08:33.172Z,2.25
2023-03-31T00:09:33.211Z,2.79
2023-03-31T00:10:33.247Z,2.74
2023-03-31T00:11:33.293Z,2.15
2023-03-31T00:12:33.321Z,2.46
2023-03-31T00:13:33.349Z,2.47
2023-03-31T00:14:33.375Z,2.26
2023-03-31T00:15:33.403Z,2.66
2023-03-31T00:16:33.484Z,2.11
2023-03-31T00:17:33.534Z,2.82
2023-03-31T00:18:33.522Z,2.20
2023-03-31T00:19:33.554Z,2.21
2023-03-31T00:20:33.615Z,2.15
2023-03-31T00:21:33.827Z,2.49
2023-03-31T00:22:33.736Z,2.19
2023-03-31T00:23:33.688Z,1.93
2023-03-31T00:24:33.724Z,2.31
2023-03-31T00:25:33.757Z,2.60
2023-03-31T00:26:33.798Z,2.83
2023-03-31T00:27:33.826Z,2.15
2023-03-31T00:28:33.856Z,2.25
2023-03-31T00:29:33.896Z,3.10
2023-03-31T00:30:33.911Z,2.04
2023-03-31T00:31:33.954Z,2.32
2023-03-31T00:32:34.058Z,2.26
2023-03-31T00:33:34.015Z,2.35
2023-03-31T00:34:34.038Z,2.19
2023-03-31T00:35:34.103Z,1.76
2023-03-31T00:36:34.102Z,2.72
2023-03-31T00:37:34.211Z,2.20
2023-03-31T00:38:34.167Z,2.61
2023-03-31T00:39:34.186Z,2.24
2023-03-31T00:40:34.266Z,2.28
2023-03-31T00:41:34.277Z,2.46
2023-03-31T00:42:34.314Z,2.16
2023-03-31T00:43:34.540Z,2.36
2023-03-31T00:44:34.405Z,2.64
2023-03-31T00:45:34.476Z,1.90
2023-03-31T00:46:35.041Z,2.47
2023-03-31T00:47:34.529Z,2.20
2023-03-31T00:48:34.528Z,2.44
2023-03-31T00:49:35.049Z,2.43
2023-03-31T00:50:34.606Z,2.48
2023-03-31T00:51:34.642Z,2.63
2023-03-31T00:52:34.700Z,2.46
2023-03-31T00:53:34.790Z,2.35
2023-03-31T00:54:34.772Z,2.44
2023-03-31T00:55:34.842Z,2.66
2023-03-31T00:56:34.829Z,2.74
2023-03-31T00:57:34.958Z,2.11
2023-03-31T00:58:34.906Z,2.58
2023-03-31T00:59:34.943Z,2.94
2023-03-31T01:00:35.045Z,2.30
2023-03-31T01:01:35.054Z,2.54
2023-03-31T01:02:36.122Z,2.55
2023-03-31T01:03:35.131Z,2.68
2023-03-31T01:04:35.132Z,2.34
2023-03-31T01:05:35.172Z,2.33
2023-03-31T01:06:35.214Z,1.90
2023-03-31T01:07:35.256Z,2.77
2023-03-31T01:08:35.293Z,2.42
2023-03-31T01:09:35.363Z,2.30
2023-03-31T01:10:35.396Z,2.31
2023-03-31T01:11:35.427Z,2.91
2023-03-31T01:12:35.462Z,2.88
2023-03-31T01:13:35.505Z,2.36
2023-03-31T01:14:35.534Z,2.59
2023-03-31T01:15:35.574Z,2.65
2023-03-31T01:16:35.639Z,2.35
2023-03-31T01:17:35.879Z,2.34
2023-03-31T01:18:35.764Z,2.28
2023-03-31T01:19:35.700Z,2.15
2023-03-31T01:20:35.795Z,2.71
2023-03-31T01:21:35.770Z,2.71
2023-03-31T01:22:35.822Z,2.48
2023-03-31T01:23:35.927Z,2.59
2023-03-31T01:24:35.896Z,2.61
2023-03-31T01:25:35.924Z,2.49
2023-03-31T01:26:35.974Z,2.58
2023-03-31T01:27:36.090Z,2.56
2023-03-31T01:28:36.068Z,2.41
2023-03-31T01:29:36.101Z,2.27
2023-03-31T01:30:36.156Z,2.41
2023-03-31T01:31:36.188Z,2.47
2023-03-31T01:32:36.309Z,2.70
2023-03-31T01:33:36.259Z,2.29
2023-03-31T01:34:36.303Z,2.92
2023-03-31T01:35:36.385Z,2.61
2023-03-31T01:36:36.380Z,2.12
2023-03-31T01:37:36.433Z,3.08
2023-03-31T01:38:36.466Z,2.45
2023-03-31T01:39:36.516Z,2.76
2023-03-31T01:40:36.562Z,2.70
2023-03-31T01:41:36.663Z,2.37
2023-03-31T01:42:36.635Z,2.62
2023-03-31T01:43:36.675Z,2.75
2023-03-31T01:44:36.723Z,2.14
2023-03-31T01:45:36.778Z,2.33
2023-03-31T01:46:36.828Z,2.42
2023-03-31T01:47:36.883Z,2.40
2023-03-31T01:48:36.883Z,2.68
2023-03-31T01:49:36.964Z,2.27
2023-03-31T01:50:36.956Z,2.22
2023-03-31T01:51:37.018Z,2.60
2023-03-31T01:52:37.034Z,2.64
2023-03-31T01:53:37.071Z,2.32
2023-03-31T01:54:37.123Z,2.59
2023-03-31T01:55:38.082Z,2.69
2023-03-31T01:56:37.219Z,2.18
2023-03-31T01:57:37.254Z,2.88
2023-03-31T01:58:37.291Z,2.59
2023-03-31T01:59:37.346Z,2.95
2023-03-31T02:00:37.393Z,2.43
2023-03-31T02:01:37.593Z,2.26
2023-03-31T02:02:37.564Z,2.77
2023-03-31T02:03:37.589Z,2.69
2023-03-31T02:04:37.574Z,2.57
2023-03-31T02:05:38.080Z,2.43
2023-03-31T02:06:37.657Z,2.60
2023-03-31T02:07:37.772Z,2.29
2023-03-31T02:08:37.741Z,2.51
2023-03-31T02:09:37.780Z,2.51
2023-03-31T02:10:37.833Z,2.64
2023-03-31T02:11:37.867Z,2.48
2023-03-31T02:12:37.917Z,2.75
2023-03-31T02:13:37.963Z,2.44
2023-03-31T02:14:38.010Z,2.46
2023-03-31T02:15:38.051Z,2.66
2023-03-31T02:16:38.123Z,2.45
2023-03-31T02:17:38.159Z,2.42
2023-03-31T02:18:38.212Z,2.23
2023-03-31T02:19:38.212Z,2.32
2023-03-31T02:20:38.265Z,2.58
2023-03-31T02:21:38.295Z,2.69
2023-03-31T02:22:38.345Z,2.57
2023-03-31T02:23:38.424Z,2.52
2023-03-31T02:24:38.422Z,2.79
2023-03-31T02:25:38.471Z,2.61
2023-03-31T02:26:38.506Z,2.46
2023-03-31T02:27:38.561Z,2.64
2023-03-31T02:28:38.656Z,2.87
2023-03-31T02:29:38.633Z,2.60
2023-03-31T02:30:38.704Z,2.89
2023-03-31T02:31:38.784Z,3.21
2023-03-31T02:32:39.106Z,2.54
2023-03-31T02:33:38.814Z,2.77
2023-03-31T02:34:38.863Z,2.41
2023-03-31T02:35:38.996Z,2.47
2023-03-31T02:36:38.964Z,2.62
2023-03-31T02:37:39.019Z,2.45
2023-03-31T02:38:39.066Z,2.24
2023-03-31T02:39:39.109Z,2.63
2023-03-31T02:40:39.160Z,2.22
2023-03-31T02:41:39.229Z,2.63
2023-03-31T02:42:39.256Z,2.43
2023-03-31T02:43:39.299Z,2.52
2023-03-31T02:44:39.346Z,2.39
2023-03-31T02:45:39.435Z,2.57
2023-03-31T02:46:39.442Z,2.85
2023-03-31T02:47:39.560Z,2.78
2023-03-31T02:48:39.537Z,2.86
2023-03-31T02:49:39.584Z,2.43
2023-03-31T02:50:39.636Z,2.42
2023-03-31T02:51:39.691Z,2.62
2023-03-31T02:52:39.725Z,2.38
2023-03-31T02:53:39.783Z,2.30
2023-03-31T02:54:39.848Z,2.80
2023-03-31T02:55:39.875Z,2.78
2023-03-31T02:56:39.938Z,2.46
2023-03-31T02:57:39.968Z,2.10
2023-03-31T02:58:40.014Z,2.68
2023-03-31T02:59:40.061Z,2.70
2023-03-31T03:00:40.108Z,2.50
2023-03-31T03:01:40.284Z,2.20
2023-03-31T03:02:40.356Z,2.48
2023-03-31T03:03:40.284Z,2.42
2023-03-31T03:04:40.273Z,2.67
2023-03-31T03:05:40.445Z,2.54
2023-03-31T03:06:40.359Z,2.66
2023-03-31T03:07:40.370Z,2.35
2023-03-31T03:08:40.459Z,2.64
2023-03-31T03:09:40.435Z,2.21
2023-03-31T03:10:40.468Z,2.78
2023-03-31T03:11:40.613Z,2.39
2023-03-31T03:12:40.517Z,2.41
2023-03-31T03:13:40.588Z,2.85
2023-03-31T03:14:40.553Z,2.47
2023-03-31T03:15:41.100Z,3.05
2023-03-31T03:16:40.628Z,2.80
2023-03-31T03:17:41.112Z,2.58
2023-03-31T03:18:40.630Z,2.90
2023-03-31T03:19:40.640Z,2.71
2023-03-31T03:20:40.660Z,2.67
2023-03-31T03:21:40.671Z,3.27
2023-03-31T03:22:40.707Z,2.51
2023-03-31T03:23:40.693Z,2.72
2023-03-31T03:24:40.726Z,3.20
2023-03-31T03:25:40.732Z,2.38
2023-03-31T03:26:40.726Z,2.30
2023-03-31T03:27:40.765Z,2.49
2023-03-31T03:28:40.793Z,3.02
2023-03-31T03:29:40.763Z,2.82
2023-03-31T03:30:40.825Z,2.38
2023-03-31T03:31:40.774Z,2.46
2023-03-31T03:32:40.813Z,2.45
2023-03-31T03:33:40.788Z,2.21
2023-03-31T03:34:40.787Z,2.76
2023-03-31T03:35:40.784Z,2.23
2023-03-31T03:36:40.797Z,2.38
2023-03-31T03:37:40.802Z,2.42
2023-03-31T03:38:40.796Z,2.59
2023-03-31T03:39:40.865Z,2.31
2023-03-31T03:40:40.799Z,2.50
2023-03-31T03:41:40.805Z,2.80
2023-03-31T03:42:40.800Z,2.65
2023-03-31T03:43:40.802Z,2.49
2023-03-31T03:44:40.796Z,3.00
2023-03-31T03:45:40.796Z,2.43
2023-03-31T03:46:40.844Z,2.78
2023-03-31T03:47:40.821Z,2.45
2023-03-31T03:48:40.795Z,2.26
2023-03-31T03:49:40.796Z,2.59
2023-03-31T03:50:40.800Z,2.55
2023-03-31T03:51:40.813Z,2.68
2023-03-31T03:52:40.796Z,2.76
2023-03-31T03:53:40.804Z,2.55
2023-03-31T03:54:40.814Z,2.54
2023-03-31T03:55:40.818Z,2.93
2023-03-31T03:56:40.821Z,2.69
2023-03-31T03:57:40.829Z,2.77
2023-03-31T03:58:40.833Z,2.30
2023-03-31T03:59:40.840Z,2.81
2023-03-31T04:00:40.827Z,2.68
2023-03-31T04:01:40.894Z,2.94
2023-03-31T04:02:40.924Z,2.60
2023-03-31T04:03:40.822Z,2.35
2023-03-31T04:04:40.905Z,2.56
2023-03-31T04:05:40.853Z,2.73
2023-03-31T04:06:40.863Z,2.89
2023-03-31T04:07:40.868Z,2.63
2023-03-31T04:08:40.901Z,2.92
2023-03-31T04:09:40.907Z,2.78
2023-03-31T04:10:40.917Z,2.46
2023-03-31T04:11:40.927Z,3.06
2023-03-31T04:12:41.027Z,2.47
2023-03-31T04:13:40.975Z,2.68
2023-03-31T04:14:41.002Z,2.46
2023-03-31T04:15:41.014Z,2.86
2023-03-31T04:16:41.064Z,2.56
2023-03-31T04:17:41.108Z,2.50
2023-03-31T04:18:41.091Z,2.59
2023-03-31T04:19:41.102Z,2.11
2023-03-31T04:20:41.095Z,3.05
2023-03-31T04:21:41.137Z,2.56
2023-03-31T04:22:41.356Z,2.72
2023-03-31T04:23:41.163Z,2.38
2023-03-31T04:24:41.248Z,2.83
2023-03-31T04:25:41.203Z,2.93
2023-03-31T04:26:41.229Z,2.81
2023-03-31T04:27:41.249Z,2.66
2023-03-31T04:28:41.272Z,2.56
2023-03-31T04:29:41.289Z,2.84
2023-03-31T04:30:41.319Z,2.80
2023-03-31T04:31:41.423Z,2.85
2023-03-31T04:32:41.408Z,3.13
2023-03-31T04:33:41.400Z,2.57
2023-03-31T04:34:41.438Z,2.98
2023-03-31T04:35:41.483Z,2.59
2023-03-31T04:36:41.512Z,2.63
2023-03-31T04:37:41.543Z,2.39
2023-03-31T04:38:41.571Z,2.96
2023-03-31T04:39:41.604Z,2.52
2023-03-31T04:40:41.644Z,2.71
2023-03-31T04:41:41.659Z,2.43
2023-03-31T04:42:41.678Z,2.78
2023-03-31T04:43:41.710Z,3.14
2023-03-31T04:44:41.731Z,2.56
2023-03-31T04:45:41.820Z,2.82
2023-03-31T04:46:41.774Z,2.41
2023-03-31T04:47:41.851Z,2.78
2023-03-31T04:48:41.831Z,2.65
2023-03-31T04:49:41.873Z,2.39
2023-03-31T04:50:41.928Z,3.07
2023-03-31T04:51:41.976Z,3.00
2023-03-31T04:52:42.026Z,2.73
2023-03-31T04:53:42.078Z,2.77
2023-03-31T04:54:42.072Z,3.10
2023-03-31T04:55:42.097Z,2.72
2023-03-31T04:56:42.196Z,2.44
2023-03-31T04:57:42.175Z,2.39
2023-03-31T04:58:42.190Z,2.68
2023-03-31T04:59:42.199Z,2.69
2023-03-31T05:00:42.231Z,2.70
2023-03-31T05:01:42.317Z,2.11
2023-03-31T05:02:42.324Z,2.53
2023-03-31T05:03:42.335Z,2.28
2023-03-31T05:04:42.341Z,2.55
2023-03-31T05:05:42.445Z,2.49
2023-03-31T05:06:42.371Z,3.14
2023-03-31T05:07:42.374Z,2.41
2023-03-31T05:08:42.369Z,2.45
2023-03-31T05:09:42.427Z,2.84
2023-03-31T05:10:42.435Z,2.50
2023-03-31T05:11:42.364Z,3.02
2023-03-31T05:12:42.370Z,2.53
2023-03-31T05:13:42.370Z,2.38
2023-03-31T05:14:42.369Z,2.86
2023-03-31T05:15:42.367Z,2.64
2023-03-31T05:16:42.373Z,2.92
2023-03-31T05:17:42.414Z,2.47
2023-03-31T05:18:42.378Z,2.67
2023-03-31T05:19:42.434Z,2.71
2023-03-31T05:20:42.383Z,3.32
2023-03-31T05:21:42.400Z,4.76
2023-03-31T05:22:43.784Z,4.62
2023-03-31T05:23:42.416Z,4.79
2023-03-31T05:24:42.418Z,5.05
2023-03-31T05:25:42.421Z,4.36
2023-03-31T05:26:42.479Z,4.62
2023-03-31T05:27:42.416Z,4.58
2023-03-31T05:28:42.427Z,4.98
2023-03-31T05:29:42.417Z,4.04
2023-03-31T05:30:42.420Z,4.30
2023-03-31T05:31:42.488Z,4.46
2023-03-31T05:32:42.514Z,5.27
2023-03-31T05:33:42.577Z,4.14
2023-03-31T05:34:42.622Z,5.17
2023-03-31T05:35:42.679Z,4.49
2023-03-31T05:36:42.713Z,4.63
2023-03-31T05:37:43.161Z,4.99
2023-03-31T05:38:42.803Z,3.97
2023-03-31T05:39:43.731Z,5.03
2023-03-31T05:40:43.658Z,4.46
2023-03-31T05:41:42.906Z,4.50
2023-03-31T05:42:42.921Z,4.59
2023-03-31T05:43:42.937Z,4.61
2023-03-31T05:44:42.940Z,4.62
2023-03-31T05:45:42.951Z,4.89
2023-03-31T05:46:43.023Z,4.36
2023-03-31T05:47:42.994Z,4.70
2023-03-31T05:48:42.973Z,5.44
2023-03-31T05:49:42.989Z,4.19
2023-03-31T05:50:42.999Z,4.54
2023-03-31T05:51:43.019Z,4.81
2023-03-31T05:52:43.169Z,4.29
2023-03-31T05:53:43.040Z,4.99
2023-03-31T05:54:43.179Z,4.32
2023-03-31T05:55:43.096Z,4.98
2023-03-31T05:56:43.190Z,4.72
2023-03-31T05:57:43.195Z,5.07
2023-03-31T05:58:43.160Z,4.35
2023-03-31T05:59:44.217Z,5.04
2023-03-31T06:00:43.232Z,5.02
2023-03-31T06:01:43.328Z,4.93
2023-03-31T06:02:43.377Z,5.58
2023-03-31T06:03:43.437Z,4.88
2023-03-31T06:04:43.498Z,4.91
2023-03-31T06:05:43.504Z,4.98
2023-03-31T06:06:43.577Z,4.39
2023-03-31T06:07:43.684Z,5.18
2023-03-31T06:08:43.685Z,4.95
2023-03-31T06:09:43.729Z,4.53
2023-03-31T06:10:43.794Z,4.49
2023-03-31T06:11:43.836Z,4.43
2023-03-31T06:12:43.887Z,5.04
2023-03-31T06:13:43.933Z,5.13
2023-03-31T06:14:43.982Z,4.52
2023-03-31T06:15:44.033Z,5.23
2023-03-31T06:16:44.075Z,4.49
2023-03-31T06:17:44.158Z,4.69
2023-03-31T06:18:44.152Z,4.97
2023-03-31T06:19:44.214Z,6.02
2023-03-31T06:20:44.225Z,5.15
2023-03-31T06:21:45.178Z,4.79
2023-03-31T06:22:44.316Z,5.18
2023-03-31T06:23:44.401Z,5.47
2023-03-31T06:24:44.396Z,5.25
2023-03-31T06:25:50.799Z,5.81
2023-03-31T06:26:45.451Z,6.05
2023-03-31T06:27:44.518Z,6.20
2023-03-31T06:28:44.435Z,5.52
2023-03-31T06:29:44.423Z,6.14
2023-03-31T06:30:44.422Z,5.39
2023-03-31T06:31:44.438Z,5.54
2023-03-31T06:32:44.442Z,6.06
2023-03-31T06:33:44.398Z,6.42
2023-03-31T06:34:45.181Z,5.72
2023-03-31T06:35:44.416Z,5.69
2023-03-31T06:36:44.393Z,5.64
2023-03-31T06:37:45.386Z,5.77
2023-03-31T06:38:44.383Z,6.06
2023-03-31T06:39:44.365Z,6.21
2023-03-31T06:40:45.183Z,5.82
2023-03-31T06:41:44.382Z,5.92
2023-03-31T06:42:44.415Z,5.84
2023-03-31T06:43:44.336Z,5.45
2023-03-31T06:44:44.328Z,6.12
2023-03-31T06:45:44.370Z,5.44
2023-03-31T06:46:45.404Z,5.49
2023-03-31T06:47:44.382Z,5.35
2023-03-31T06:48:44.301Z,5.73
2023-03-31T06:49:44.321Z,6.19
2023-03-31T06:50:44.289Z,5.55
2023-03-31T06:51:44.293Z,5.65
2023-03-31T06:52:44.289Z,5.90
2023-03-31T06:53:44.340Z,5.09
2023-03-31T06:54:44.259Z,5.84
2023-03-31T06:55:44.249Z,5.15
2023-03-31T06:56:44.368Z,5.75
2023-03-31T06:57:44.243Z,6.42
2023-03-31T06:58:44.232Z,5.26
2023-03-31T06:59:44.694Z,5.43
2023-03-31T07:00:44.226Z,5.19
2023-03-31T07:01:44.275Z,5.72
2023-03-31T07:02:44.285Z,5.22
2023-03-31T07:03:44.278Z,5.62
2023-03-31T07:04:44.209Z,5.56
2023-03-31T07:05:44.193Z,5.53
2023-03-31T07:06:44.192Z,5.39
2023-03-31T07:07:46.215Z,5.23
2023-03-31T07:08:44.267Z,5.72
2023-03-31T07:09:44.218Z,5.73
2023-03-31T07:10:44.278Z,5.68
2023-03-31T07:11:45.261Z,5.57
2023-03-31T07:12:44.368Z,4.76
2023-03-31T07:13:44.377Z,5.20
2023-03-31T07:14:44.384Z,5.58
2023-03-31T07:15:44.380Z,5.56
2023-03-31T07:16:44.444Z,5.76
2023-03-31T07:17:44.527Z,5.52
2023-03-31T07:18:44.495Z,5.49
2023-03-31T07:19:44.489Z,6.31
2023-03-31T07:20:44.488Z,5.93
2023-03-31T07:21:44.508Z,5.12
2023-03-31T07:22:44.524Z,5.38
2023-03-31T07:23:44.617Z,5.43
2023-03-31T07:24:44.714Z,5.46
2023-03-31T07:25:44.784Z,6.31
2023-03-31T07:26:44.743Z,6.58
2023-03-31T07:27:44.757Z,5.68
2023-03-31T07:28:44.793Z,7.57
2023-03-31T07:29:44.809Z,6.65
2023-03-31T07:30:45.210Z,6.97
2023-03-31T07:31:44.889Z,7.18
2023-03-31T07:32:44.982Z,6.64
2023-03-31T07:33:44.888Z,6.36
2023-03-31T07:34:45.616Z,6.73
2023-03-31T07:35:44.921Z,6.52
2023-03-31T07:36:44.965Z,6.88
2023-03-31T07:37:44.952Z,7.34
2023-03-31T07:38:44.992Z,7.40
2023-03-31T07:39:45.033Z,6.42
2023-03-31T07:40:46.216Z,6.55
2023-03-31T07:41:45.137Z,6.98
2023-03-31T07:42:46.032Z,6.55
2023-03-31T07:43:45.097Z,6.64
2023-03-31T07:44:45.041Z,6.68
2023-03-31T07:45:45.078Z,6.54
2023-03-31T07:46:45.100Z,6.86
2023-03-31T07:47:45.062Z,6.32
2023-03-31T07:48:45.015Z,6.38
2023-03-31T07:49:45.011Z,6.71
2023-03-31T07:50:45.008Z,6.18
2023-03-31T07:51:45.023Z,6.20
2023-03-31T07:52:46.807Z,6.57
2023-03-31T07:53:44.980Z,6.73
2023-03-31T07:54:44.979Z,6.80
2023-03-31T07:55:44.978Z,7.51
2023-03-31T07:56:44.994Z,7.75
2023-03-31T07:57:45.206Z,7.03
2023-03-31T07:58:44.956Z,6.33
2023-03-31T07:59:44.941Z,7.83
2023-03-31T08:00:44.937Z,7.01
2023-03-31T08:01:44.966Z,7.13
2023-03-31T08:02:45.757Z,6.70
2023-03-31T08:03:44.960Z,7.41
2023-03-31T08:04:44.924Z,6.75
2023-03-31T08:05:44.948Z,7.19
2023-03-31T08:06:44.944Z,6.92
2023-03-31T08:07:44.951Z,7.39
2023-03-31T08:08:45.042Z,6.12
2023-03-31T08:09:45.061Z,7.02
2023-03-31T08:10:45.042Z,7.05
2023-03-31T08:11:46.897Z,6.78
2023-03-31T08:12:45.042Z,7.19
2023-03-31T08:13:45.031Z,6.26
2023-03-31T08:14:45.031Z,6.64
2023-03-31T08:15:45.043Z,6.50
2023-03-31T08:16:45.125Z,6.22
2023-03-31T08:17:45.040Z,6.34
2023-03-31T08:18:44.997Z,5.99
2023-03-31T08:19:44.993Z,7.03
2023-03-31T08:20:46.194Z,5.98
2023-03-31T08:21:44.979Z,5.98
2023-03-31T08:22:44.972Z,6.20
2023-03-31T08:23:44.963Z,6.32
2023-03-31T08:24:45.717Z,6.60
2023-03-31T08:25:44.970Z,6.60
2023-03-31T08:26:44.948Z,6.17
2023-03-31T08:27:45.708Z,6.65
2023-03-31T08:28:44.925Z,6.36
2023-03-31T08:29:44.999Z,6.24
2023-03-31T08:30:44.942Z,6.25
2023-03-31T08:31:45.000Z,6.31
2023-03-31T08:32:44.908Z,6.69
2023-03-31T08:33:44.916Z,6.85
2023-03-31T08:34:44.883Z,6.58
2023-03-31T08:35:44.965Z,6.19
2023-03-31T08:36:44.875Z,6.85
2023-03-31T08:37:44.863Z,6.23
2023-03-31T08:38:44.861Z,6.04
2023-03-31T08:39:45.797Z,5.88
2023-03-31T08:40:44.970Z,6.31
2023-03-31T08:41:44.849Z,6.11
2023-03-31T08:42:44.860Z,6.43
2023-03-31T08:43:44.827Z,6.28
2023-03-31T08:44:44.823Z,5.73
2023-03-31T08:45:44.860Z,6.44
2023-03-31T08:46:44.853Z,6.24
2023-03-31T08:47:44.916Z,6.22
2023-03-31T08:48:44.792Z,6.18
2023-03-31T08:49:44.794Z,5.54
2023-03-31T08:50:44.788Z,6.03
2023-03-31T08:51:44.766Z,5.93
2023-03-31T08:52:44.913Z,6.88
2023-03-31T08:53:44.761Z,5.54
2023-03-31T08:54:44.834Z,5.44
2023-03-31T08:55:44.746Z,5.93
2023-03-31T08:56:44.800Z,6.06
2023-03-31T08:57:45.612Z,5.68
2023-03-31T08:58:44.715Z,5.66
2023-03-31T08:59:44.711Z,5.66
2023-03-31T09:00:44.713Z,5.56
2023-03-31T09:01:55.505Z,5.64
2023-03-31T09:02:45.832Z,5.97
2023-03-31T09:03:45.312Z,5.13
2023-03-31T09:04:44.693Z,5.93
2023-03-31T09:05:53.020Z,5.57
2023-03-31T09:06:45.663Z,5.09
2023-03-31T09:07:44.731Z,5.64
2023-03-31T09:08:44.664Z,5.68
2023-03-31T09:09:44.649Z,5.21
2023-03-31T09:10:44.647Z,5.73
2023-03-31T09:11:44.628Z,5.11
2023-03-31T09:12:44.691Z,5.77
2023-03-31T09:13:44.715Z,5.31
2023-03-31T09:14:44.611Z,8.07
2023-03-31T09:15:44.600Z,5.81
2023-03-31T09:16:44.654Z,5.55
2023-03-31T09:17:44.615Z,5.53
2023-03-31T09:18:44.590Z,5.83
2023-03-31T09:19:47.244Z,5.88
2023-03-31T09:20:44.571Z,6.05
2023-03-31T09:21:45.241Z,5.87
2023-03-31T09:22:44.544Z,5.33
2023-03-31T09:23:44.541Z,5.97
2023-03-31T09:24:44.541Z,5.56
2023-03-31T09:25:44.544Z,5.46
2023-03-31T09:26:44.515Z,5.68
2023-03-31T09:27:44.521Z,5.90
2023-03-31T09:28:45.245Z,5.12
2023-03-31T09:29:44.512Z,5.08
2023-03-31T09:30:44.518Z,5.46
2023-03-31T09:31:45.333Z,5.18
2023-03-31T09:32:44.519Z,4.87
2023-03-31T09:33:44.484Z,5.72
2023-03-31T09:34:44.492Z,5.08
2023-03-31T09:35:46.034Z,5.19
2023-03-31T09:36:44.472Z,4.76
2023-03-31T09:37:45.256Z,5.67
2023-03-31T09:38:44.468Z,5.64
2023-03-31T09:39:45.252Z,5.67
2023-03-31T09:40:44.436Z,5.21
2023-03-31T09:41:44.428Z,5.95
2023-03-31T09:42:44.439Z,5.79
2023-03-31T09:43:44.483Z,5.65
2023-03-31T09:44:44.438Z,6.60
2023-03-31T09:45:52.097Z,7.16
2023-03-31T09:46:47.407Z,7.06
2023-03-31T09:47:45.345Z,6.90
2023-03-31T09:48:44.382Z,7.02
2023-03-31T09:49:53.951Z,6.52
2023-03-31T09:50:45.374Z,7.16
2023-03-31T09:51:44.363Z,6.55
2023-03-31T09:52:44.372Z,6.56
2023-03-31T09:53:44.355Z,7.06
2023-03-31T09:54:44.341Z,7.81
2023-03-31T09:55:44.344Z,6.63
2023-03-31T09:56:44.347Z,6.72
2023-03-31T09:57:44.337Z,7.38
2023-03-31T09:58:44.321Z,7.02
2023-03-31T09:59:44.316Z,7.23
2023-03-31T10:00:44.324Z,5.87
2023-03-31T10:01:44.316Z,6.93
2023-03-31T10:02:45.300Z,6.86
2023-03-31T10:03:44.336Z,6.09
2023-03-31T10:04:44.281Z,6.65
2023-03-31T10:05:44.293Z,7.21
2023-03-31T10:06:44.263Z,6.46
2023-03-31T10:07:44.257Z,6.68
2023-03-31T10:08:44.281Z,6.66
2023-03-31T10:09:44.249Z,6.55
2023-03-31T10:10:44.249Z,6.44
2023-03-31T10:11:44.238Z,6.86
2023-03-31T10:12:44.230Z,6.99
2023-03-31T10:13:44.231Z,6.58
2023-03-31T10:14:44.256Z,6.41
2023-03-31T10:15:44.247Z,7.64
2023-03-31T10:16:44.194Z,7.71
2023-03-31T10:17:54.443Z,7.48
2023-03-31T10:18:45.186Z,7.64
2023-03-31T10:19:45.351Z,7.19
2023-03-31T10:20:44.318Z,7.03
2023-03-31T10:21:44.181Z,7.54
2023-03-31T10:22:44.225Z,7.57
2023-03-31T10:23:44.231Z,7.54
2023-03-31T10:24:44.687Z,7.33
2023-03-31T10:25:44.137Z,7.19
2023-03-31T10:26:44.131Z,6.98
2023-03-31T10:27:44.119Z,7.05
2023-03-31T10:28:44.119Z,6.97
2023-03-31T10:29:44.118Z,7.24
2023-03-31T10:30:44.136Z,7.59
2023-03-31T10:31:44.217Z,7.64
2023-03-31T10:32:44.341Z,7.61
2023-03-31T10:33:44.328Z,6.94
2023-03-31T10:34:44.400Z,6.53
2023-03-31T10:35:44.801Z,7.14
2023-03-31T10:36:44.479Z,7.02
2023-03-31T10:37:44.542Z,6.67
2023-03-31T10:38:45.324Z,6.70
2023-03-31T10:39:44.654Z,6.21
2023-03-31T10:40:44.758Z,6.28
2023-03-31T10:41:44.823Z,6.43
2023-03-31T10:42:44.811Z,7.26
2023-03-31T10:43:44.866Z,6.60
2023-03-31T10:44:44.891Z,7.29
2023-03-31T10:45:44.907Z,6.58
2023-03-31T10:46:45.049Z,6.82
2023-03-31T10:47:45.066Z,6.99
2023-03-31T10:48:45.081Z,6.83
2023-03-31T10:49:45.095Z,6.49
2023-03-31T10:50:45.733Z,7.22
2023-03-31T10:51:45.227Z,7.29
2023-03-31T10:52:45.204Z,6.83
2023-03-31T10:53:45.253Z,5.96
2023-03-31T10:54:45.315Z,6.66
2023-03-31T10:55:45.792Z,6.00
2023-03-31T10:56:47.865Z,6.82
2023-03-31T10:57:45.399Z,6.00
2023-03-31T10:58:51.991Z,7.23
2023-03-31T10:59:46.397Z,6.08
2023-03-31T11:00:45.364Z,7.42
2023-03-31T11:01:45.462Z,6.79
2023-03-31T11:02:45.436Z,7.65
2023-03-31T11:03:45.435Z,7.36
2023-03-31T11:04:45.343Z,6.28
2023-03-31T11:05:45.337Z,6.44
2023-03-31T11:06:45.338Z,6.94
2023-03-31T11:07:45.401Z,6.37
2023-03-31T11:08:45.307Z,6.86
2023-03-31T11:09:45.308Z,5.60
2023-03-31T11:10:45.303Z,6.30
2023-03-31T11:11:45.315Z,5.58
2023-03-31T11:12:45.292Z,6.79
2023-03-31T11:13:45.303Z,6.08
2023-03-31T11:14:45.296Z,6.74
2023-03-31T11:15:45.332Z,5.71
2023-03-31T11:16:45.316Z,6.17
2023-03-31T11:17:45.355Z,6.82
2023-03-31T11:18:45.331Z,6.48
2023-03-31T11:19:45.446Z,6.04
2023-03-31T11:20:45.521Z,6.40
2023-03-31T11:21:45.622Z,7.03
2023-03-31T11:22:45.733Z,5.73
2023-03-31T11:23:45.743Z,6.21
2023-03-31T11:24:45.753Z,5.85
2023-03-31T11:25:45.751Z,6.15
2023-03-31T11:26:45.763Z,6.40
2023-03-31T11:27:45.771Z,6.37
2023-03-31T11:28:45.866Z,6.70
2023-03-31T11:29:45.873Z,5.41
2023-03-31T11:30:45.873Z,6.10
2023-03-31T11:31:46.319Z,5.71
2023-03-31T11:32:46.036Z,6.97
2023-03-31T11:33:45.999Z,6.58
2023-03-31T11:34:46.012Z,5.58
2023-03-31T11:35:46.101Z,7.27
2023-03-31T11:36:46.033Z,5.50
2023-03-31T11:37:46.072Z,6.88
2023-03-31T11:38:46.160Z,6.71
2023-03-31T11:39:46.159Z,5.97
2023-03-31T11:40:46.186Z,6.22
2023-03-31T11:41:46.202Z,6.10
2023-03-31T11:42:46.192Z,5.65
2023-03-31T11:43:46.213Z,6.12
2023-03-31T11:44:46.228Z,5.94
2023-03-31T11:45:46.276Z,5.52
2023-03-31T11:46:46.265Z,6.10
2023-03-31T11:47:46.315Z,6.08
2023-03-31T11:48:46.287Z,5.57
2023-03-31T11:49:46.320Z,6.19
2023-03-31T11:50:46.334Z,6.32
2023-03-31T11:51:46.338Z,6.07
2023-03-31T11:52:46.342Z,5.64
2023-03-31T11:53:46.374Z,5.37
2023-03-31T11:54:46.385Z,6.39
2023-03-31T11:55:46.391Z,5.95
2023-03-31T11:56:46.414Z,5.63
2023-03-31T11:57:46.415Z,5.10
2023-03-31T11:58:46.436Z,5.64
2023-03-31T11:59:46.436Z,6.11
2023-03-31T12:00:46.455Z,6.87
2023-03-31T12:01:46.483Z,6.03
2023-03-31T12:02:46.569Z,6.20
2023-03-31T12:03:46.503Z,5.42
2023-03-31T12:04:46.509Z,5.63
2023-03-31T12:05:46.539Z,5.94
2023-03-31T12:06:46.574Z,5.48
2023-03-31T12:07:46.588Z,5.00
2023-03-31T12:08:46.605Z,5.46
2023-03-31T12:09:46.624Z,5.37
2023-03-31T12:10:46.653Z,4.86
2023-03-31T12:11:46.669Z,5.78
2023-03-31T12:12:46.700Z,5.38
2023-03-31T12:13:46.759Z,5.29
2023-03-31T12:14:46.727Z,5.78
2023-03-31T12:15:46.828Z,6.10
2023-03-31T12:16:46.779Z,5.54
2023-03-31T12:17:46.843Z,5.94
2023-03-31T12:18:46.828Z,5.53
2023-03-31T12:19:46.849Z,5.79
2023-03-31T12:20:46.876Z,5.60
2023-03-31T12:21:46.912Z,5.31
2023-03-31T12:22:46.929Z,5.53
2023-03-31T12:23:46.952Z,5.64
2023-03-31T12:24:46.976Z,5.65
2023-03-31T12:25:47.012Z,5.22
2023-03-31T12:26:47.035Z,5.41
2023-03-31T12:27:47.815Z,5.31
2023-03-31T12:28:47.105Z,5.93
2023-03-31T12:29:47.125Z,5.38
2023-03-31T12:30:47.162Z,5.35
2023-03-31T12:31:47.275Z,5.39
2023-03-31T12:32:47.319Z,5.49
2023-03-31T12:33:47.276Z,5.36
2023-03-31T12:34:47.325Z,5.84
2023-03-31T12:35:48.349Z,4.77
2023-03-31T12:36:47.402Z,5.60
2023-03-31T12:37:47.445Z,5.14
2023-03-31T12:38:47.497Z,5.04
2023-03-31T12:39:47.534Z,5.93
2023-03-31T12:40:47.593Z,5.69
2023-03-31T12:41:47.675Z,5.62
2023-03-31T12:42:47.783Z,5.43
2023-03-31T12:43:47.755Z,6.01
2023-03-31T12:44:47.812Z,5.76
2023-03-31T12:45:47.878Z,5.87
2023-03-31T12:46:47.996Z,5.63
2023-03-31T12:47:48.035Z,6.23
2023-03-31T12:48:48.045Z,5.43
2023-03-31T12:49:48.101Z,5.39
2023-03-31T12:50:48.146Z,6.20
2023-03-31T12:51:48.225Z,6.30
2023-03-31T12:52:48.263Z,5.43
2023-03-31T12:53:48.364Z,5.60
2023-03-31T12:54:49.334Z,5.29
2023-03-31T12:55:48.426Z,5.86
2023-03-31T12:56:48.521Z,5.98
2023-03-31T12:57:48.541Z,5.70
2023-03-31T12:58:48.592Z,6.34
2023-03-31T12:59:48.644Z,5.68
2023-03-31T13:00:48.729Z,5.71
2023-03-31T13:01:48.800Z,5.10
2023-03-31T13:02:48.876Z,5.99
2023-03-31T13:03:48.874Z,5.00
2023-03-31T13:04:48.931Z,6.30
2023-03-31T13:05:48.985Z,5.38
2023-03-31T13:06:49.053Z,5.73
2023-03-31T13:07:49.100Z,6.08
2023-03-31T13:08:49.162Z,5.75
2023-03-31T13:09:49.215Z,5.64
2023-03-31T13:10:49.339Z,5.87
2023-03-31T13:11:49.335Z,5.52
2023-03-31T13:12:49.397Z,5.78
2023-03-31T13:14:50.434Z,5.83
2023-03-31T13:15:49.409Z,5.97
2023-03-31T13:16:49.480Z,6.29
2023-03-31T13:17:49.421Z,5.79
2023-03-31T13:18:49.385Z,6.46
2023-03-31T13:19:49.848Z,5.68